sensor_id;sensor_type;location;lat;lon;timestamp;temperature;humidity
25046;DHT22;13044;49.304;12.840;2023-03-03T00:01:01;2.70;99.90
25046;DHT22;13044;49.304;12.840;2023-03-03T00:03:29;2.60;99.90
25046;DHT22;13044;49.304;12.840;2023-03-03T00:05:56;2.60;99.90
25046;DHT22;13044;49.304;12.840;2023-03-03T00:08:23;2.60;99.90
25046;DHT22;13044;49.304;12.840;2023-03-03T00:10:51;2.50;99.90
25046;DHT22;13044;49.304;12.840;2023-03-03T00:13:21;2.50;99.90
25046;DHT22;13044;49.304;12.840;2023-03-03T00:15:50;2.40;99.90
25046;DHT22;13044;49.304;12.840;2023-03-03T00:18:21;2.40;99.90
25046;DHT22;13044;49.304;12.840;2023-03-03T00:21:00;2.40;99.90
25046;DHT22;13044;49.304;12.840;2023-03-03T00:23:36;2.30;99.90
25046;DHT22;13044;49.304;12.840;2023-03-03T00:26:36;2.30;99.90
25046;DHT22;13044;49.304;12.840;2023-03-03T00:29:23;2.30;99.90
25046;DHT22;13044;49.304;12.840;2023-03-03T00:32:17;2.40;99.90
25046;DHT22;13044;49.304;12.840;2023-03-03T00:34:43;2.40;99.90
25046;DHT22;13044;49.304;12.840;2023-03-03T00:37:33;2.40;99.90
25046;DHT22;13044;49.304;12.840;2023-03-03T00:40:18;2.40;99.90
25046;DHT22;13044;49.304;12.840;2023-03-03T00:42:55;2.30;99.90
25046;DHT22;13044;49.304;12.840;2023-03-03T00:48:24;2.30;99.90
25046;DHT22;13044;49.304;12.840;2023-03-03T00:50:59;2.30;99.90
25046;DHT22;13044;49.304;12.840;2023-03-03T00:53:29;2.20;99.90
25046;DHT22;13044;49.304;12.840;2023-03-03T00:55:56;2.20;99.90
25046;DHT22;13044;49.304;12.840;2023-03-03T00:58:23;2.20;99.90
25046;DHT22;13044;49.304;12.840;2023-03-03T01:00:52;2.10;99.90
25046;DHT22;13044;49.304;12.840;2023-03-03T01:03:22;2.00;99.90
25046;DHT22;13044;49.304;12.840;2023-03-03T01:05:51;2.00;99.90
25046;DHT22;13044;49.304;12.840;2023-03-03T01:08:19;2.00;99.90
25046;DHT22;13044;49.304;12.840;2023-03-03T01:10:49;1.90;99.90
25046;DHT22;13044;49.304;12.840;2023-03-03T01:13:19;1.80;99.90
25046;DHT22;13044;49.304;12.840;2023-03-03T01:15:49;1.80;99.90
25046;DHT22;13044;49.304;12.840;2023-03-03T01:18:16;1.80;99.90
25046;DHT22;13044;49.304;12.840;2023-03-03T01:20:43;1.70;99.90
25046;DHT22;13044;49.304;12.840;2023-03-03T01:23:10;1.70;99.90
25046;DHT22;13044;49.304;12.840;2023-03-03T01:25:37;1.80;99.90
25046;DHT22;13044;49.304;12.840;2023-03-03T01:28:04;1.80;99.90
25046;DHT22;13044;49.304;12.840;2023-03-03T01:30:31;1.70;99.90
25046;DHT22;13044;49.304;12.840;2023-03-03T01:32:58;1.70;99.90
25046;DHT22;13044;49.304;12.840;2023-03-03T01:35:26;1.80;99.90
25046;DHT22;13044;49.304;12.840;2023-03-03T01:37:53;1.80;99.90
25046;DHT22;13044;49.304;12.840;2023-03-03T01:40:23;1.70;99.90
25046;DHT22;13044;49.304;12.840;2023-03-03T01:42:52;1.70;99.90
25046;DHT22;13044;49.304;12.840;2023-03-03T01:45:25;1.60;99.90
25046;DHT22;13044;49.304;12.840;2023-03-03T01:48:20;1.60;99.90
25046;DHT22;13044;49.304;12.840;2023-03-03T01:51:04;1.50;99.90
25046;DHT22;13044;49.304;12.840;2023-03-03T01:56:09;1.40;99.90
25046;DHT22;13044;49.304;12.840;2023-03-03T01:58:40;1.50;99.90
25046;DHT22;13044;49.304;12.840;2023-03-03T02:01:15;1.50;99.90
25046;DHT22;13044;49.304;12.840;2023-03-03T02:03:45;1.40;99.90
25046;DHT22;13044;49.304;12.840;2023-03-03T02:06:19;1.30;99.90
25046;DHT22;13044;49.304;12.840;2023-03-03T02:09:01;1.20;99.90
25046;DHT22;13044;49.304;12.840;2023-03-03T02:11:33;1.10;99.90
25046;DHT22;13044;49.304;12.840;2023-03-03T02:14:02;1.10;99.90
25046;DHT22;13044;49.304;12.840;2023-03-03T02:16:29;1.10;99.90
25046;DHT22;13044;49.304;12.840;2023-03-03T02:18:56;1.00;99.90
25046;DHT22;13044;49.304;12.840;2023-03-03T02:21:24;1.00;99.90
25046;DHT22;13044;49.304;12.840;2023-03-03T02:24:11;1.10;99.90
25046;DHT22;13044;49.304;12.840;2023-03-03T02:26:44;1.10;99.90
25046;DHT22;13044;49.304;12.840;2023-03-03T02:29:11;1.20;99.90
25046;DHT22;13044;49.304;12.840;2023-03-03T02:31:38;1.10;99.90
25046;DHT22;13044;49.304;12.840;2023-03-03T02:34:05;1.10;99.90
25046;DHT22;13044;49.304;12.840;2023-03-03T02:36:36;1.10;99.90
25046;DHT22;13044;49.304;12.840;2023-03-03T02:39:10;1.20;99.90
25046;DHT22;13044;49.304;12.840;2023-03-03T02:42:02;1.10;99.90
25046;DHT22;13044;49.304;12.840;2023-03-03T02:44:34;1.00;99.90
25046;DHT22;13044;49.304;12.840;2023-03-03T02:47:01;1.00;99.90
25046;DHT22;13044;49.304;12.840;2023-03-03T02:49:30;1.00;99.90
25046;DHT22;13044;49.304;12.840;2023-03-03T02:51:59;1.00;99.90
25046;DHT22;13044;49.304;12.840;2023-03-03T02:54:29;1.00;99.90
25046;DHT22;13044;49.304;12.840;2023-03-03T02:56:59;1.00;99.90
25046;DHT22;13044;49.304;12.840;2023-03-03T02:59:27;1.00;99.90
25046;DHT22;13044;49.304;12.840;2023-03-03T03:01:54;1.00;99.90
25046;DHT22;13044;49.304;12.840;2023-03-03T03:04:24;1.00;99.90
25046;DHT22;13044;49.304;12.840;2023-03-03T03:06:53;0.90;99.90
25046;DHT22;13044;49.304;12.840;2023-03-03T03:09:22;1.00;99.90
25046;DHT22;13044;49.304;12.840;2023-03-03T03:11:50;1.10;99.90
25046;DHT22;13044;49.304;12.840;2023-03-03T03:14:17;1.10;99.90
25046;DHT22;13044;49.304;12.840;2023-03-03T03:16:44;1.00;99.90
25046;DHT22;13044;49.304;12.840;2023-03-03T03:19:11;1.00;99.90
25046;DHT22;13044;49.304;12.840;2023-03-03T03:21:38;1.10;99.90
25046;DHT22;13044;49.304;12.840;2023-03-03T03:24:05;1.20;99.90
25046;DHT22;13044;49.304;12.840;2023-03-03T03:26:32;1.30;99.90
25046;DHT22;13044;49.304;12.840;2023-03-03T03:28:59;1.30;99.90
25046;DHT22;13044;49.304;12.840;2023-03-03T03:31:26;1.30;99.90
25046;DHT22;13044;49.304;12.840;2023-03-03T03:33:53;1.30;99.90
25046;DHT22;13044;49.304;12.840;2023-03-03T03:36:20;1.30;99.90
25046;DHT22;13044;49.304;12.840;2023-03-03T03:38:46;1.30;99.90
25046;DHT22;13044;49.304;12.840;2023-03-03T03:41:13;1.30;99.90
25046;DHT22;13044;49.304;12.840;2023-03-03T03:43:40;1.30;99.90
25046;DHT22;13044;49.304;12.840;2023-03-03T03:46:07;1.40;99.90
25046;DHT22;13044;49.304;12.840;2023-03-03T03:48:34;1.40;99.90
25046;DHT22;13044;49.304;12.840;2023-03-03T03:51:01;1.30;99.90
25046;DHT22;13044;49.304;12.840;2023-03-03T03:53:28;1.30;99.90
25046;DHT22;13044;49.304;12.840;2023-03-03T03:55:55;1.30;99.90
25046;DHT22;13044;49.304;12.840;2023-03-03T03:58:22;1.10;99.90
25046;DHT22;13044;49.304;12.840;2023-03-03T04:00:49;1.00;99.90
25046;DHT22;13044;49.304;12.840;2023-03-03T04:03:16;1.00;99.90
25046;DHT22;13044;49.304;12.840;2023-03-03T04:05:43;0.90;99.90
25046;DHT22;13044;49.304;12.840;2023-03-03T04:08:10;1.00;99.90
25046;DHT22;13044;49.304;12.840;2023-03-03T04:10:37;0.90;99.90
25046;DHT22;13044;49.304;12.840;2023-03-03T04:13:04;0.80;99.90
25046;DHT22;13044;49.304;12.840;2023-03-03T04:15:31;0.70;99.90
25046;DHT22;13044;49.304;12.840;2023-03-03T04:17:58;0.80;99.90
25046;DHT22;13044;49.304;12.840;2023-03-03T04:20:25;0.80;99.90
25046;DHT22;13044;49.304;12.840;2023-03-03T04:22:52;0.80;99.90
25046;DHT22;13044;49.304;12.840;2023-03-03T04:25:19;0.80;99.90
25046;DHT22;13044;49.304;12.840;2023-03-03T04:27:46;0.80;99.90
25046;DHT22;13044;49.304;12.840;2023-03-03T04:30:14;0.80;99.90
25046;DHT22;13044;49.304;12.840;2023-03-03T04:32:41;0.80;99.90
25046;DHT22;13044;49.304;12.840;2023-03-03T04:35:09;0.80;99.90
25046;DHT22;13044;49.304;12.840;2023-03-03T04:37:36;0.70;99.90
25046;DHT22;13044;49.304;12.840;2023-03-03T04:40:05;0.70;99.90
25046;DHT22;13044;49.304;12.840;2023-03-03T04:42:33;0.80;99.90
25046;DHT22;13044;49.304;12.840;2023-03-03T04:45:00;0.70;99.90
25046;DHT22;13044;49.304;12.840;2023-03-03T04:47:27;0.70;99.90
25046;DHT22;13044;49.304;12.840;2023-03-03T04:49:54;0.60;99.90
25046;DHT22;13044;49.304;12.840;2023-03-03T04:52:21;0.50;99.90
25046;DHT22;13044;49.304;12.840;2023-03-03T04:54:48;0.60;99.90
25046;DHT22;13044;49.304;12.840;2023-03-03T04:57:15;0.60;99.90
25046;DHT22;13044;49.304;12.840;2023-03-03T04:59:41;0.70;99.90
25046;DHT22;13044;49.304;12.840;2023-03-03T05:02:08;0.60;99.90
25046;DHT22;13044;49.304;12.840;2023-03-03T05:04:36;0.60;99.90
25046;DHT22;13044;49.304;12.840;2023-03-03T05:07:05;0.60;99.90
25046;DHT22;13044;49.304;12.840;2023-03-03T05:09:32;0.60;99.90
25046;DHT22;13044;49.304;12.840;2023-03-03T05:11:59;0.60;99.90
25046;DHT22;13044;49.304;12.840;2023-03-03T05:14:26;0.70;99.90
25046;DHT22;13044;49.304;12.840;2023-03-03T05:16:53;0.70;99.90
25046;DHT22;13044;49.304;12.840;2023-03-03T05:19:20;0.70;99.90
25046;DHT22;13044;49.304;12.840;2023-03-03T05:21:47;0.60;99.90
25046;DHT22;13044;49.304;12.840;2023-03-03T05:24:14;0.60;99.90
25046;DHT22;13044;49.304;12.840;2023-03-03T05:26:41;0.60;99.90
25046;DHT22;13044;49.304;12.840;2023-03-03T05:29:08;0.60;99.90
25046;DHT22;13044;49.304;12.840;2023-03-03T05:31:35;0.50;99.90
25046;DHT22;13044;49.304;12.840;2023-03-03T05:34:02;0.50;99.90
25046;DHT22;13044;49.304;12.840;2023-03-03T05:36:29;0.50;99.90
25046;DHT22;13044;49.304;12.840;2023-03-03T05:38:56;0.50;99.90
25046;DHT22;13044;49.304;12.840;2023-03-03T05:41:23;0.40;99.90
25046;DHT22;13044;49.304;12.840;2023-03-03T05:43:50;0.40;99.90
25046;DHT22;13044;49.304;12.840;2023-03-03T05:46:17;0.40;99.90
25046;DHT22;13044;49.304;12.840;2023-03-03T05:48:44;0.40;99.90
25046;DHT22;13044;49.304;12.840;2023-03-03T05:51:11;0.40;99.90
25046;DHT22;13044;49.304;12.840;2023-03-03T05:53:38;0.40;99.90
25046;DHT22;13044;49.304;12.840;2023-03-03T05:56:06;0.40;99.90
25046;DHT22;13044;49.304;12.840;2023-03-03T05:58:33;0.40;99.90
25046;DHT22;13044;49.304;12.840;2023-03-03T06:01:00;0.40;99.90
25046;DHT22;13044;49.304;12.840;2023-03-03T06:03:27;0.40;99.90
25046;DHT22;13044;49.304;12.840;2023-03-03T06:05:54;0.30;99.90
25046;DHT22;13044;49.304;12.840;2023-03-03T06:08:21;0.30;99.90
25046;DHT22;13044;49.304;12.840;2023-03-03T06:10:48;0.30;99.90
25046;DHT22;13044;49.304;12.840;2023-03-03T06:13:15;0.30;99.90
25046;DHT22;13044;49.304;12.840;2023-03-03T06:15:42;0.40;99.90
25046;DHT22;13044;49.304;12.840;2023-03-03T06:18:09;0.40;99.90
25046;DHT22;13044;49.304;12.840;2023-03-03T06:20:36;0.50;99.90
25046;DHT22;13044;49.304;12.840;2023-03-03T06:23:04;0.50;99.90
25046;DHT22;13044;49.304;12.840;2023-03-03T06:25:31;0.50;99.90
25046;DHT22;13044;49.304;12.840;2023-03-03T06:28:02;0.50;99.90
25046;DHT22;13044;49.304;12.840;2023-03-03T06:30:29;0.60;99.90
25046;DHT22;13044;49.304;12.840;2023-03-03T06:32:56;0.70;99.90
25046;DHT22;13044;49.304;12.840;2023-03-03T06:35:23;0.60;99.90
25046;DHT22;13044;49.304;12.840;2023-03-03T06:37:50;0.60;99.90
25046;DHT22;13044;49.304;12.840;2023-03-03T06:40:17;0.60;99.90
25046;DHT22;13044;49.304;12.840;2023-03-03T06:42:44;0.70;99.90
25046;DHT22;13044;49.304;12.840;2023-03-03T06:45:11;0.80;99.90
25046;DHT22;13044;49.304;12.840;2023-03-03T06:47:39;0.90;99.90
25046;DHT22;13044;49.304;12.840;2023-03-03T06:50:07;1.00;99.90
25046;DHT22;13044;49.304;12.840;2023-03-03T06:52:35;1.00;99.90
25046;DHT22;13044;49.304;12.840;2023-03-03T06:55:17;1.10;99.90
25046;DHT22;13044;49.304;12.840;2023-03-03T06:57:47;1.10;99.90
25046;DHT22;13044;49.304;12.840;2023-03-03T07:00:22;1.20;99.90
25046;DHT22;13044;49.304;12.840;2023-03-03T07:03:00;1.30;99.90
25046;DHT22;13044;49.304;12.840;2023-03-03T07:05:31;1.40;99.90
25046;DHT22;13044;49.304;12.840;2023-03-03T07:08:00;1.60;99.90
25046;DHT22;13044;49.304;12.840;2023-03-03T07:10:29;1.70;99.90
25046;DHT22;13044;49.304;12.840;2023-03-03T07:13:19;1.70;99.90
25046;DHT22;13044;49.304;12.840;2023-03-03T07:15:49;1.80;99.90
25046;DHT22;13044;49.304;12.840;2023-03-03T07:21:34;2.00;99.90
25046;DHT22;13044;49.304;12.840;2023-03-03T07:26:45;2.20;99.90
25046;DHT22;13044;49.304;12.840;2023-03-03T07:31:51;2.50;99.90
25046;DHT22;13044;49.304;12.840;2023-03-03T07:34:37;2.50;99.90
25046;DHT22;13044;49.304;12.840;2023-03-03T07:37:33;2.50;99.90
25046;DHT22;13044;49.304;12.840;2023-03-03T07:40:26;2.40;99.90
25046;DHT22;13044;49.304;12.840;2023-03-03T07:46:45;2.50;99.90
25046;DHT22;13044;49.304;12.840;2023-03-03T07:49:33;2.60;99.90
25046;DHT22;13044;49.304;12.840;2023-03-03T07:52:28;2.70;99.90
25046;DHT22;13044;49.304;12.840;2023-03-03T07:55:00;2.80;99.90
25046;DHT22;13044;49.304;12.840;2023-03-03T07:57:35;2.90;99.90
25046;DHT22;13044;49.304;12.840;2023-03-03T08:02:53;3.10;99.90
25046;DHT22;13044;49.304;12.840;2023-03-03T08:05:42;3.20;99.90
25046;DHT22;13044;49.304;12.840;2023-03-03T08:08:27;3.40;99.90
25046;DHT22;13044;49.304;12.840;2023-03-03T08:10:59;3.40;99.90
25046;DHT22;13044;49.304;12.840;2023-03-03T08:16:35;3.60;99.90
25046;DHT22;13044;49.304;12.840;2023-03-03T08:19:05;3.60;99.90
25046;DHT22;13044;49.304;12.840;2023-03-03T08:21:33;3.80;99.90
25046;DHT22;13044;49.304;12.840;2023-03-03T08:24:02;3.90;99.90
25046;DHT22;13044;49.304;12.840;2023-03-03T08:26:31;4.00;99.90
25046;DHT22;13044;49.304;12.840;2023-03-03T08:28:58;4.20;99.90
25046;DHT22;13044;49.304;12.840;2023-03-03T08:31:27;4.40;99.90
25046;DHT22;13044;49.304;12.840;2023-03-03T08:34:07;4.50;99.90
25046;DHT22;13044;49.304;12.840;2023-03-03T08:36:36;4.70;99.90
25046;DHT22;13044;49.304;12.840;2023-03-03T08:39:04;4.80;99.90
25046;DHT22;13044;49.304;12.840;2023-03-03T08:41:36;5.00;99.90
25046;DHT22;13044;49.304;12.840;2023-03-03T08:44:04;5.10;99.90
25046;DHT22;13044;49.304;12.840;2023-03-03T08:46:31;5.20;99.90
25046;DHT22;13044;49.304;12.840;2023-03-03T08:48:59;5.50;99.90
25046;DHT22;13044;49.304;12.840;2023-03-03T08:51:26;5.80;99.90
25046;DHT22;13044;49.304;12.840;2023-03-03T08:53:56;6.00;99.10
25046;DHT22;13044;49.304;12.840;2023-03-03T08:56:23;6.30;97.80
25046;DHT22;13044;49.304;12.840;2023-03-03T08:58:51;6.40;96.50
25046;DHT22;13044;49.304;12.840;2023-03-03T09:01:29;6.70;96.30
25046;DHT22;13044;49.304;12.840;2023-03-03T09:03:57;6.90;95.20
25046;DHT22;13044;49.304;12.840;2023-03-03T09:06:24;7.10;94.30
25046;DHT22;13044;49.304;12.840;2023-03-03T09:08:51;7.20;92.90
25046;DHT22;13044;49.304;12.840;2023-03-03T09:11:25;7.30;92.80
25046;DHT22;13044;49.304;12.840;2023-03-03T09:14:24;7.00;92.50
25046;DHT22;13044;49.304;12.840;2023-03-03T09:16:55;7.00;92.10
25046;DHT22;13044;49.304;12.840;2023-03-03T09:19:32;7.00;92.60
25046;DHT22;13044;49.304;12.840;2023-03-03T09:22:24;7.00;92.10
25046;DHT22;13044;49.304;12.840;2023-03-03T09:24:54;7.00;92.40
25046;DHT22;13044;49.304;12.840;2023-03-03T09:27:30;6.90;92.80
25046;DHT22;13044;49.304;12.840;2023-03-03T09:30:28;6.90;93.20
25046;DHT22;13044;49.304;12.840;2023-03-03T09:33:01;7.00;93.40
25046;DHT22;13044;49.304;12.840;2023-03-03T09:35:44;7.10;93.60
25046;DHT22;13044;49.304;12.840;2023-03-03T09:38:29;7.20;92.60
25046;DHT22;13044;49.304;12.840;2023-03-03T09:44:12;7.10;92.80
25046;DHT22;13044;49.304;12.840;2023-03-03T09:53:06;7.40;93.00
25046;DHT22;13044;49.304;12.840;2023-03-03T09:56:03;7.50;92.10
25046;DHT22;13044;49.304;12.840;2023-03-03T09:59:00;7.50;92.10
25046;DHT22;13044;49.304;12.840;2023-03-03T10:05:20;7.50;92.30
25046;DHT22;13044;49.304;12.840;2023-03-03T10:08:27;7.60;92.10
25046;DHT22;13044;49.304;12.840;2023-03-03T10:22:55;7.80;92.00
25046;DHT22;13044;49.304;12.840;2023-03-03T10:25:38;7.90;91.30
25046;DHT22;13044;49.304;12.840;2023-03-03T10:31:41;8.30;91.50
25046;DHT22;13044;49.304;12.840;2023-03-03T10:34:53;8.50;91.00
25046;DHT22;13044;49.304;12.840;2023-03-03T10:40:57;8.70;90.10
25046;DHT22;13044;49.304;12.840;2023-03-03T10:50:29;9.70;86.90
25046;DHT22;13044;49.304;12.840;2023-03-03T11:01:58;10.50;86.40
25046;DHT22;13044;49.304;12.840;2023-03-03T11:07:49;10.60;82.80
25046;DHT22;13044;49.304;12.840;2023-03-03T11:13:31;10.60;82.90
25046;DHT22;13044;49.304;12.840;2023-03-03T11:16:32;10.60;83.30
25046;DHT22;13044;49.304;12.840;2023-03-03T11:19:35;10.50;81.30
25046;DHT22;13044;49.304;12.840;2023-03-03T11:25:12;10.40;79.10
25046;DHT22;13044;49.304;12.840;2023-03-03T11:28:08;10.20;79.20
25046;DHT22;13044;49.304;12.840;2023-03-03T11:38:51;10.20;79.90
25046;DHT22;13044;49.304;12.840;2023-03-03T11:41:39;10.00;77.20
25046;DHT22;13044;49.304;12.840;2023-03-03T12:01:34;10.00;79.00
25046;DHT22;13044;49.304;12.840;2023-03-03T12:04:19;9.90;79.30
25046;DHT22;13044;49.304;12.840;2023-03-03T12:12:57;10.50;80.80
25046;DHT22;13044;49.304;12.840;2023-03-03T12:15:32;10.60;79.60
25046;DHT22;13044;49.304;12.840;2023-03-03T12:18:12;10.70;79.80
25046;DHT22;13044;49.304;12.840;2023-03-03T12:33:54;11.00;78.90
25046;DHT22;13044;49.304;12.840;2023-03-03T12:36:50;11.00;78.90
25046;DHT22;13044;49.304;12.840;2023-03-03T12:39:55;11.10;78.20
25046;DHT22;13044;49.304;12.840;2023-03-03T12:42:37;11.10;77.50
25046;DHT22;13044;49.304;12.840;2023-03-03T12:48:09;11.20;77.20
25046;DHT22;13044;49.304;12.840;2023-03-03T12:56:08;11.30;77.90
25046;DHT22;13044;49.304;12.840;2023-03-03T12:58:51;11.40;77.70
25046;DHT22;13044;49.304;12.840;2023-03-03T13:02:03;11.50;77.70
25046;DHT22;13044;49.304;12.840;2023-03-03T13:14:25;11.50;76.90
25046;DHT22;13044;49.304;12.840;2023-03-03T13:19:55;11.70;76.50
25046;DHT22;13044;49.304;12.840;2023-03-03T13:22:34;11.70;76.20
25046;DHT22;13044;49.304;12.840;2023-03-03T13:25:15;11.80;75.40
25046;DHT22;13044;49.304;12.840;2023-03-03T13:27:48;11.70;74.10
25046;DHT22;13044;49.304;12.840;2023-03-03T13:30:27;11.60;72.90
25046;DHT22;13044;49.304;12.840;2023-03-03T13:33:16;11.60;74.90
25046;DHT22;13044;49.304;12.840;2023-03-03T13:35:58;11.80;75.50
25046;DHT22;13044;49.304;12.840;2023-03-03T13:38:34;11.90;75.60
25046;DHT22;13044;49.304;12.840;2023-03-03T13:41:24;11.90;73.80
25046;DHT22;13044;49.304;12.840;2023-03-03T13:44:38;11.80;74.20
25046;DHT22;13044;49.304;12.840;2023-03-03T13:50:26;11.90;76.90
25046;DHT22;13044;49.304;12.840;2023-03-03T13:55:58;12.00;75.20
25046;DHT22;13044;49.304;12.840;2023-03-03T13:58:50;11.90;75.90
25046;DHT22;13044;49.304;12.840;2023-03-03T14:04:34;12.10;75.60
25046;DHT22;13044;49.304;12.840;2023-03-03T14:07:23;12.20;76.00
25046;DHT22;13044;49.304;12.840;2023-03-03T14:09:58;12.20;74.90
25046;DHT22;13044;49.304;12.840;2023-03-03T14:13:02;12.20;74.50
25046;DHT22;13044;49.304;12.840;2023-03-03T14:18:54;12.10;75.60
25046;DHT22;13044;49.304;12.840;2023-03-03T14:21:32;12.20;74.70
25046;DHT22;13044;49.304;12.840;2023-03-03T14:24:21;12.10;73.40
25046;DHT22;13044;49.304;12.840;2023-03-03T14:26:55;12.00;74.60
25046;DHT22;13044;49.304;12.840;2023-03-03T14:31:57;12.00;75.00
25046;DHT22;13044;49.304;12.840;2023-03-03T14:34:39;12.00;74.80
25046;DHT22;13044;49.304;12.840;2023-03-03T14:40:20;11.70;73.70
25046;DHT22;13044;49.304;12.840;2023-03-03T14:45:32;11.90;73.90
25046;DHT22;13044;49.304;12.840;2023-03-03T14:50:58;12.00;73.70
25046;DHT22;13044;49.304;12.840;2023-03-03T14:53:46;12.00;72.90
25046;DHT22;13044;49.304;12.840;2023-03-03T14:56:28;11.80;72.30
25046;DHT22;13044;49.304;12.840;2023-03-03T14:59:18;11.80;73.80
25046;DHT22;13044;49.304;12.840;2023-03-03T15:01:46;11.80;74.30
25046;DHT22;13044;49.304;12.840;2023-03-03T15:06:45;11.70;73.70
25046;DHT22;13044;49.304;12.840;2023-03-03T15:17:40;11.60;76.40
25046;DHT22;13044;49.304;12.840;2023-03-03T15:21:18;11.60;75.40
25046;DHT22;13044;49.304;12.840;2023-03-03T15:24:03;11.50;74.50
25046;DHT22;13044;49.304;12.840;2023-03-03T15:26:51;11.40;75.00
25046;DHT22;13044;49.304;12.840;2023-03-03T15:32:33;11.30;74.50
25046;DHT22;13044;49.304;12.840;2023-03-03T15:40:47;11.00;76.10
25046;DHT22;13044;49.304;12.840;2023-03-03T15:43:38;10.80;74.40
25046;DHT22;13044;49.304;12.840;2023-03-03T15:46:34;10.70;73.60
25046;DHT22;13044;49.304;12.840;2023-03-03T15:49:42;10.70;74.50
25046;DHT22;13044;49.304;12.840;2023-03-03T15:56:14;10.40;72.40
25046;DHT22;13044;49.304;12.840;2023-03-03T16:04:47;10.20;72.80
25046;DHT22;13044;49.304;12.840;2023-03-03T16:10:43;10.10;72.80
25046;DHT22;13044;49.304;12.840;2023-03-03T16:13:58;10.10;73.30
25046;DHT22;13044;49.304;12.840;2023-03-03T16:23:23;9.90;74.90
25046;DHT22;13044;49.304;12.840;2023-03-03T16:35:19;9.60;74.50
25046;DHT22;13044;49.304;12.840;2023-03-03T16:38:00;9.50;74.70
25046;DHT22;13044;49.304;12.840;2023-03-03T16:43:23;9.40;74.90
25046;DHT22;13044;49.304;12.840;2023-03-03T16:52:07;9.20;75.90
25046;DHT22;13044;49.304;12.840;2023-03-03T16:55:01;9.00;76.10
25046;DHT22;13044;49.304;12.840;2023-03-03T17:00:36;8.70;78.20
25046;DHT22;13044;49.304;12.840;2023-03-03T17:06:53;8.30;78.80
25046;DHT22;13044;49.304;12.840;2023-03-03T17:15:20;7.70;82.10
25046;DHT22;13044;49.304;12.840;2023-03-03T17:20:47;7.40;83.50
25046;DHT22;13044;49.304;12.840;2023-03-03T17:23:45;7.30;83.70
25046;DHT22;13044;49.304;12.840;2023-03-03T17:26:29;7.20;86.40
25046;DHT22;13044;49.304;12.840;2023-03-03T17:29:17;7.10;86.30
25046;DHT22;13044;49.304;12.840;2023-03-03T17:31:54;7.00;86.50
25046;DHT22;13044;49.304;12.840;2023-03-03T17:34:46;7.00;87.20
25046;DHT22;13044;49.304;12.840;2023-03-03T17:40:24;6.80;88.40
25046;DHT22;13044;49.304;12.840;2023-03-03T17:43:16;6.70;87.70
25046;DHT22;13044;49.304;12.840;2023-03-03T17:45:48;6.50;88.90
25046;DHT22;13044;49.304;12.840;2023-03-03T17:57:21;6.20;91.80
25046;DHT22;13044;49.304;12.840;2023-03-03T18:03:09;6.00;92.20
25046;DHT22;13044;49.304;12.840;2023-03-03T18:06:16;5.80;92.40
25046;DHT22;13044;49.304;12.840;2023-03-03T18:09:11;5.80;93.30
25046;DHT22;13044;49.304;12.840;2023-03-03T18:12:12;5.70;92.50
25046;DHT22;13044;49.304;12.840;2023-03-03T18:23:40;5.20;94.30
25046;DHT22;13044;49.304;12.840;2023-03-03T18:26:36;5.20;94.40
25046;DHT22;13044;49.304;12.840;2023-03-03T18:37:33;5.00;95.10
25046;DHT22;13044;49.304;12.840;2023-03-03T18:42:39;4.80;95.90
25046;DHT22;13044;49.304;12.840;2023-03-03T18:48:12;4.80;96.00
25046;DHT22;13044;49.304;12.840;2023-03-03T18:50:48;4.80;97.00
25046;DHT22;13044;49.304;12.840;2023-03-03T18:53:30;4.70;96.90
25046;DHT22;13044;49.304;12.840;2023-03-03T18:56:02;4.60;96.70
25046;DHT22;13044;49.304;12.840;2023-03-03T18:58:40;4.60;97.90
25046;DHT22;13044;49.304;12.840;2023-03-03T19:04:17;4.40;97.40
25046;DHT22;13044;49.304;12.840;2023-03-03T19:09:19;4.30;98.00
25046;DHT22;13044;49.304;12.840;2023-03-03T19:12:10;4.30;97.70
25046;DHT22;13044;49.304;12.840;2023-03-03T19:14:47;4.20;99.00
25046;DHT22;13044;49.304;12.840;2023-03-03T19:20:08;4.10;99.90
25046;DHT22;13044;49.304;12.840;2023-03-03T19:22:52;3.80;99.90
25046;DHT22;13044;49.304;12.840;2023-03-03T19:25:29;3.60;99.90
25046;DHT22;13044;49.304;12.840;2023-03-03T19:45:14;3.50;99.90
25046;DHT22;13044;49.304;12.840;2023-03-03T19:48:20;3.50;99.90
25046;DHT22;13044;49.304;12.840;2023-03-03T19:51:25;3.50;99.90
25046;DHT22;13044;49.304;12.840;2023-03-03T19:57:01;3.30;99.90
25046;DHT22;13044;49.304;12.840;2023-03-03T19:59:49;3.00;99.90
25046;DHT22;13044;49.304;12.840;2023-03-03T20:02:51;2.80;99.90
25046;DHT22;13044;49.304;12.840;2023-03-03T20:05:40;2.40;99.90
25046;DHT22;13044;49.304;12.840;2023-03-03T20:08:22;2.20;99.90
25046;DHT22;13044;49.304;12.840;2023-03-03T20:11:09;2.20;99.90
25046;DHT22;13044;49.304;12.840;2023-03-03T20:13:57;2.20;99.90
25046;DHT22;13044;49.304;12.840;2023-03-03T20:16:52;2.20;99.90
25046;DHT22;13044;49.304;12.840;2023-03-03T20:19:26;2.20;99.90
25046;DHT22;13044;49.304;12.840;2023-03-03T20:25:12;2.00;99.90
25046;DHT22;13044;49.304;12.840;2023-03-03T20:31:20;2.30;99.90
25046;DHT22;13044;49.304;12.840;2023-03-03T20:37:50;2.40;99.90
25046;DHT22;13044;49.304;12.840;2023-03-03T20:40:40;2.40;99.90
25046;DHT22;13044;49.304;12.840;2023-03-03T20:51:49;2.30;99.90
25046;DHT22;13044;49.304;12.840;2023-03-03T20:57:06;2.30;99.90
25046;DHT22;13044;49.304;12.840;2023-03-03T20:59:59;2.20;99.90
25046;DHT22;13044;49.304;12.840;2023-03-03T21:03:13;2.20;99.90
25046;DHT22;13044;49.304;12.840;2023-03-03T21:06:09;2.30;99.90
25046;DHT22;13044;49.304;12.840;2023-03-03T21:08:50;2.20;99.90
25046;DHT22;13044;49.304;12.840;2023-03-03T21:14:13;2.00;99.90
25046;DHT22;13044;49.304;12.840;2023-03-03T21:16:44;1.90;99.90
25046;DHT22;13044;49.304;12.840;2023-03-03T21:19:21;1.90;99.90
25046;DHT22;13044;49.304;12.840;2023-03-03T21:21:59;1.80;99.90
25046;DHT22;13044;49.304;12.840;2023-03-03T21:30:06;1.80;99.90
25046;DHT22;13044;49.304;12.840;2023-03-03T21:32:38;1.80;99.90
25046;DHT22;13044;49.304;12.840;2023-03-03T21:35:17;1.70;99.90
25046;DHT22;13044;49.304;12.840;2023-03-03T21:37:51;1.60;99.90
25046;DHT22;13044;49.304;12.840;2023-03-03T21:40:26;1.50;99.90
25046;DHT22;13044;49.304;12.840;2023-03-03T21:42:57;1.40;99.90
25046;DHT22;13044;49.304;12.840;2023-03-03T21:45:27;1.40;99.90
25046;DHT22;13044;49.304;12.840;2023-03-03T21:47:56;1.40;99.90
25046;DHT22;13044;49.304;12.840;2023-03-03T21:50:28;1.30;99.90
25046;DHT22;13044;49.304;12.840;2023-03-03T21:52:58;1.30;99.90
25046;DHT22;13044;49.304;12.840;2023-03-03T21:55:27;1.20;99.90
25046;DHT22;13044;49.304;12.840;2023-03-03T21:57:54;1.20;99.90
25046;DHT22;13044;49.304;12.840;2023-03-03T22:00:21;1.20;99.90